sensor_id;sensor_type;location;lat;lon;timestamp;P1;durP1;ratioP1;P2;durP2;ratioP2
71083;SDS011;58741;52.672;13.548;2023-08-06T00:00:19;0.60;;;0.55;;
71083;SDS011;58741;52.672;13.548;2023-08-06T00:02:45;1.40;;;0.70;;
71083;SDS011;58741;52.672;13.548;2023-08-06T00:05:10;0.88;;;0.82;;
71083;SDS011;58741;52.672;13.548;2023-08-06T00:07:36;0.52;;;0.52;;
71083;SDS011;58741;52.672;13.548;2023-08-06T00:10:01;1.15;;;0.82;;
71083;SDS011;58741;52.672;13.548;2023-08-06T00:12:27;1.33;;;0.85;;
71083;SDS011;58741;52.672;13.548;2023-08-06T00:14:53;1.40;;;1.05;;
71083;SDS011;58741;52.672;13.548;2023-08-06T00:17:19;0.77;;;0.77;;
71083;SDS011;58741;52.672;13.548;2023-08-06T00:19:45;0.93;;;0.80;;
71083;SDS011;58741;52.672;13.548;2023-08-06T00:22:10;1.35;;;1.08;;
71083;SDS011;58741;52.672;13.548;2023-08-06T00:24:36;1.13;;;1.00;;
71083;SDS011;58741;52.672;13.548;2023-08-06T00:27:02;0.90;;;0.70;;
71083;SDS011;58741;52.672;13.548;2023-08-06T00:29:27;1.08;;;0.80;;
71083;SDS011;58741;52.672;13.548;2023-08-06T00:31:53;0.75;;;0.60;;
71083;SDS011;58741;52.672;13.548;2023-08-06T00:34:19;1.67;;;0.93;;
71083;SDS011;58741;52.672;13.548;2023-08-06T00:36:44;1.33;;;1.00;;
71083;SDS011;58741;52.672;13.548;2023-08-06T00:39:11;0.47;;;0.47;;
71083;SDS011;58741;52.672;13.548;2023-08-06T00:41:37;1.20;;;0.90;;
71083;SDS011;58741;52.672;13.548;2023-08-06T00:44:03;0.95;;;0.88;;
71083;SDS011;58741;52.672;13.548;2023-08-06T00:46:29;1.38;;;1.10;;
71083;SDS011;58741;52.672;13.548;2023-08-06T00:48:55;1.45;;;1.08;;
71083;SDS011;58741;52.672;13.548;2023-08-06T00:51:21;1.15;;;0.90;;
71083;SDS011;58741;52.672;13.548;2023-08-06T00:53:48;2.00;;;1.30;;
71083;SDS011;58741;52.672;13.548;2023-08-06T00:56:15;0.90;;;0.70;;
71083;SDS011;58741;52.672;13.548;2023-08-06T00:58:40;0.98;;;0.95;;
71083;SDS011;58741;52.672;13.548;2023-08-06T01:01:06;0.77;;;0.70;;
71083;SDS011;58741;52.672;13.548;2023-08-06T01:03:32;0.70;;;0.70;;
71083;SDS011;58741;52.672;13.548;2023-08-06T01:06:00;2.10;;;0.90;;
71083;SDS011;58741;52.672;13.548;2023-08-06T01:16:13;0.95;;;0.70;;
71083;SDS011;58741;52.672;13.548;2023-08-06T01:18:42;0.73;;;0.70;;
71083;SDS011;58741;52.672;13.548;2023-08-06T01:21:11;1.13;;;1.02;;
71083;SDS011;58741;52.672;13.548;2023-08-06T01:23:38;0.90;;;0.90;;
71083;SDS011;58741;52.672;13.548;2023-08-06T01:26:24;1.10;;;1.00;;
71083;SDS011;58741;52.672;13.548;2023-08-06T01:29:04;1.13;;;0.90;;
71083;SDS011;58741;52.672;13.548;2023-08-06T01:31:35;0.80;;;0.80;;
71083;SDS011;58741;52.672;13.548;2023-08-06T01:34:03;1.55;;;0.75;;
71083;SDS011;58741;52.672;13.548;2023-08-06T01:36:32;0.95;;;0.88;;
71083;SDS011;58741;52.672;13.548;2023-08-06T01:38:59;1.92;;;1.10;;
71083;SDS011;58741;52.672;13.548;2023-08-06T01:41:25;1.40;;;1.15;;
71083;SDS011;58741;52.672;13.548;2023-08-06T01:43:51;0.65;;;0.60;;
71083;SDS011;58741;52.672;13.548;2023-08-06T01:46:16;1.75;;;1.20;;
71083;SDS011;58741;52.672;13.548;2023-08-06T01:48:43;0.93;;;0.80;;
71083;SDS011;58741;52.672;13.548;2023-08-06T01:51:09;1.85;;;1.08;;
71083;SDS011;58741;52.672;13.548;2023-08-06T01:53:35;0.98;;;0.70;;
71083;SDS011;58741;52.672;13.548;2023-08-06T01:56:00;1.38;;;1.02;;
71083;SDS011;58741;52.672;13.548;2023-08-06T01:58:26;0.90;;;0.80;;
71083;SDS011;58741;52.672;13.548;2023-08-06T02:00:52;0.70;;;0.70;;
71083;SDS011;58741;52.672;13.548;2023-08-06T02:03:17;1.00;;;0.90;;
71083;SDS011;58741;52.672;13.548;2023-08-06T02:05:43;1.20;;;0.80;;
71083;SDS011;58741;52.672;13.548;2023-08-06T02:08:08;1.33;;;1.20;;
71083;SDS011;58741;52.672;13.548;2023-08-06T02:10:34;1.02;;;0.80;;
71083;SDS011;58741;52.672;13.548;2023-08-06T02:13:00;2.65;;;1.38;;
71083;SDS011;58741;52.672;13.548;2023-08-06T02:15:25;0.95;;;0.90;;
71083;SDS011;58741;52.672;13.548;2023-08-06T02:17:51;0.95;;;0.80;;
71083;SDS011;58741;52.672;13.548;2023-08-06T02:20:16;1.10;;;0.80;;
71083;SDS011;58741;52.672;13.548;2023-08-06T02:22:42;1.60;;;0.77;;
71083;SDS011;58741;52.672;13.548;2023-08-06T02:25:07;1.05;;;0.82;;
71083;SDS011;58741;52.672;13.548;2023-08-06T02:27:34;1.25;;;0.95;;
71083;SDS011;58741;52.672;13.548;2023-08-06T02:30:00;0.63;;;0.57;;
71083;SDS011;58741;52.672;13.548;2023-08-06T02:32:25;1.60;;;0.80;;
71083;SDS011;58741;52.672;13.548;2023-08-06T02:34:51;0.93;;;0.73;;
71083;SDS011;58741;52.672;13.548;2023-08-06T02:37:17;1.17;;;0.90;;
71083;SDS011;58741;52.672;13.548;2023-08-06T02:39:44;0.75;;;0.75;;
71083;SDS011;58741;52.672;13.548;2023-08-06T02:42:10;0.95;;;0.85;;
71083;SDS011;58741;52.672;13.548;2023-08-06T02:44:35;1.10;;;0.90;;
71083;SDS011;58741;52.672;13.548;2023-08-06T02:47:01;1.25;;;0.85;;
71083;SDS011;58741;52.672;13.548;2023-08-06T02:49:27;0.85;;;0.77;;
71083;SDS011;58741;52.672;13.548;2023-08-06T02:51:53;0.75;;;0.75;;
71083;SDS011;58741;52.672;13.548;2023-08-06T02:54:18;1.48;;;1.13;;
71083;SDS011;58741;52.672;13.548;2023-08-06T02:56:45;1.13;;;0.80;;
71083;SDS011;58741;52.672;13.548;2023-08-06T02:59:17;1.52;;;0.70;;
71083;SDS011;58741;52.672;13.548;2023-08-06T03:01:58;1.45;;;1.02;;
71083;SDS011;58741;52.672;13.548;2023-08-06T03:04:32;0.80;;;0.75;;
71083;SDS011;58741;52.672;13.548;2023-08-06T03:06:57;1.02;;;0.93;;
71083;SDS011;58741;52.672;13.548;2023-08-06T03:09:29;1.05;;;0.93;;
71083;SDS011;58741;52.672;13.548;2023-08-06T03:11:55;0.85;;;0.80;;
71083;SDS011;58741;52.672;13.548;2023-08-06T03:14:21;0.88;;;0.88;;
71083;SDS011;58741;52.672;13.548;2023-08-06T03:16:46;1.83;;;0.80;;
71083;SDS011;58741;52.672;13.548;2023-08-06T03:19:14;0.90;;;0.80;;
71083;SDS011;58741;52.672;13.548;2023-08-06T03:21:40;0.88;;;0.80;;
71083;SDS011;58741;52.672;13.548;2023-08-06T03:24:06;1.00;;;0.90;;
71083;SDS011;58741;52.672;13.548;2023-08-06T03:26:33;1.40;;;0.95;;
71083;SDS011;58741;52.672;13.548;2023-08-06T03:29:00;0.60;;;0.60;;
71083;SDS011;58741;52.672;13.548;2023-08-06T03:31:29;0.93;;;0.68;;
71083;SDS011;58741;52.672;13.548;2023-08-06T03:33:55;0.85;;;0.60;;
71083;SDS011;58741;52.672;13.548;2023-08-06T03:36:24;0.80;;;0.80;;
71083;SDS011;58741;52.672;13.548;2023-08-06T03:38:51;0.85;;;0.70;;
71083;SDS011;58741;52.672;13.548;2023-08-06T03:41:16;1.17;;;0.88;;
71083;SDS011;58741;52.672;13.548;2023-08-06T03:43:43;0.60;;;0.60;;
71083;SDS011;58741;52.672;13.548;2023-08-06T03:46:14;1.02;;;0.77;;
71083;SDS011;58741;52.672;13.548;2023-08-06T03:48:39;0.82;;;0.60;;
71083;SDS011;58741;52.672;13.548;2023-08-06T03:51:05;1.08;;;0.98;;
71083;SDS011;58741;52.672;13.548;2023-08-06T03:53:31;1.00;;;0.90;;
71083;SDS011;58741;52.672;13.548;2023-08-06T03:55:57;0.77;;;0.77;;
71083;SDS011;58741;52.672;13.548;2023-08-06T03:58:25;2.85;;;0.93;;
71083;SDS011;58741;52.672;13.548;2023-08-06T04:00:58;1.30;;;0.70;;
71083;SDS011;58741;52.672;13.548;2023-08-06T04:03:33;0.68;;;0.68;;
71083;SDS011;58741;52.672;13.548;2023-08-06T04:05:59;0.75;;;0.57;;
71083;SDS011;58741;52.672;13.548;2023-08-06T04:08:26;0.85;;;0.63;;
71083;SDS011;58741;52.672;13.548;2023-08-06T04:10:52;0.77;;;0.73;;
71083;SDS011;58741;52.672;13.548;2023-08-06T04:13:18;1.63;;;0.70;;
71083;SDS011;58741;52.672;13.548;2023-08-06T04:15:44;2.30;;;0.85;;
71083;SDS011;58741;52.672;13.548;2023-08-06T04:18:10;0.85;;;0.80;;
71083;SDS011;58741;52.672;13.548;2023-08-06T04:20:42;0.95;;;0.70;;
71083;SDS011;58741;52.672;13.548;2023-08-06T04:23:11;0.60;;;0.60;;
71083;SDS011;58741;52.672;13.548;2023-08-06T04:25:38;1.33;;;0.90;;
71083;SDS011;58741;52.672;13.548;2023-08-06T04:28:04;0.93;;;0.73;;
71083;SDS011;58741;52.672;13.548;2023-08-06T04:30:30;0.77;;;0.60;;
71083;SDS011;58741;52.672;13.548;2023-08-06T04:32:56;0.77;;;0.57;;
71083;SDS011;58741;52.672;13.548;2023-08-06T04:35:24;1.25;;;0.70;;
71083;SDS011;58741;52.672;13.548;2023-08-06T04:37:50;0.70;;;0.70;;
71083;SDS011;58741;52.672;13.548;2023-08-06T04:40:16;0.75;;;0.75;;
71083;SDS011;58741;52.672;13.548;2023-08-06T04:42:42;0.50;;;0.50;;
71083;SDS011;58741;52.672;13.548;2023-08-06T04:45:08;1.27;;;0.60;;
71083;SDS011;58741;52.672;13.548;2023-08-06T04:47:34;0.85;;;0.65;;
71083;SDS011;58741;52.672;13.548;2023-08-06T04:49:59;0.60;;;0.60;;
71083;SDS011;58741;52.672;13.548;2023-08-06T04:52:25;1.42;;;0.77;;
71083;SDS011;58741;52.672;13.548;2023-08-06T04:54:54;0.70;;;0.70;;
71083;SDS011;58741;52.672;13.548;2023-08-06T04:57:20;0.68;;;0.68;;
71083;SDS011;58741;52.672;13.548;2023-08-06T04:59:46;0.70;;;0.70;;
71083;SDS011;58741;52.672;13.548;2023-08-06T05:02:12;0.68;;;0.68;;
71083;SDS011;58741;52.672;13.548;2023-08-06T05:04:37;0.70;;;0.70;;
71083;SDS011;58741;52.672;13.548;2023-08-06T05:07:03;0.98;;;0.90;;
71083;SDS011;58741;52.672;13.548;2023-08-06T05:09:30;1.90;;;0.70;;
71083;SDS011;58741;52.672;13.548;2023-08-06T05:11:55;1.30;;;0.75;;
71083;SDS011;58741;52.672;13.548;2023-08-06T05:14:21;0.80;;;0.73;;
71083;SDS011;58741;52.672;13.548;2023-08-06T05:16:47;0.68;;;0.65;;
71083;SDS011;58741;52.672;13.548;2023-08-06T05:19:12;0.73;;;0.73;;
71083;SDS011;58741;52.672;13.548;2023-08-06T05:21:38;1.30;;;0.70;;
71083;SDS011;58741;52.672;13.548;2023-08-06T05:24:03;0.95;;;0.80;;
71083;SDS011;58741;52.672;13.548;2023-08-06T05:26:29;0.98;;;0.70;;
71083;SDS011;58741;52.672;13.548;2023-08-06T05:28:55;1.38;;;0.93;;
71083;SDS011;58741;52.672;13.548;2023-08-06T05:31:20;0.60;;;0.50;;
71083;SDS011;58741;52.672;13.548;2023-08-06T05:33:46;0.63;;;0.63;;
71083;SDS011;58741;52.672;13.548;2023-08-06T05:36:11;1.10;;;0.75;;
71083;SDS011;58741;52.672;13.548;2023-08-06T05:38:37;1.10;;;0.77;;
71083;SDS011;58741;52.672;13.548;2023-08-06T05:41:02;0.75;;;0.70;;
71083;SDS011;58741;52.672;13.548;2023-08-06T05:43:28;1.13;;;0.90;;
71083;SDS011;58741;52.672;13.548;2023-08-06T05:45:55;0.47;;;0.47;;
71083;SDS011;58741;52.672;13.548;2023-08-06T05:48:21;0.60;;;0.57;;
71083;SDS011;58741;52.672;13.548;2023-08-06T05:50:49;0.52;;;0.52;;
71083;SDS011;58741;52.672;13.548;2023-08-06T05:53:15;0.40;;;0.40;;
71083;SDS011;58741;52.672;13.548;2023-08-06T05:55:40;0.70;;;0.70;;
71083;SDS011;58741;52.672;13.548;2023-08-06T05:58:06;1.20;;;0.90;;
71083;SDS011;58741;52.672;13.548;2023-08-06T06:00:32;1.08;;;0.73;;
71083;SDS011;58741;52.672;13.548;2023-08-06T06:02:57;0.73;;;0.73;;
71083;SDS011;58741;52.672;13.548;2023-08-06T06:05:23;0.80;;;0.80;;
71083;SDS011;58741;52.672;13.548;2023-08-06T06:07:48;0.90;;;0.80;;
71083;SDS011;58741;52.672;13.548;2023-08-06T06:10:14;0.70;;;0.60;;
71083;SDS011;58741;52.672;13.548;2023-08-06T06:12:40;1.23;;;1.08;;
71083;SDS011;58741;52.672;13.548;2023-08-06T06:15:06;1.98;;;1.20;;
71083;SDS011;58741;52.672;13.548;2023-08-06T06:17:32;1.00;;;0.80;;
71083;SDS011;58741;52.672;13.548;2023-08-06T06:19:57;1.27;;;1.00;;
71083;SDS011;58741;52.672;13.548;2023-08-06T06:22:23;1.58;;;0.88;;
71083;SDS011;58741;52.672;13.548;2023-08-06T06:24:48;0.77;;;0.70;;
71083;SDS011;58741;52.672;13.548;2023-08-06T06:27:14;0.80;;;0.80;;
71083;SDS011;58741;52.672;13.548;2023-08-06T06:29:39;1.13;;;0.80;;
71083;SDS011;58741;52.672;13.548;2023-08-06T06:32:05;0.73;;;0.73;;
71083;SDS011;58741;52.672;13.548;2023-08-06T06:34:31;0.80;;;0.80;;
71083;SDS011;58741;52.672;13.548;2023-08-06T06:36:56;1.17;;;0.85;;
71083;SDS011;58741;52.672;13.548;2023-08-06T06:39:22;1.70;;;1.23;;
71083;SDS011;58741;52.672;13.548;2023-08-06T06:41:47;0.90;;;0.82;;
71083;SDS011;58741;52.672;13.548;2023-08-06T06:44:22;1.13;;;1.00;;
71083;SDS011;58741;52.672;13.548;2023-08-06T06:46:48;0.82;;;0.70;;
71083;SDS011;58741;52.672;13.548;2023-08-06T06:49:13;1.00;;;0.90;;
71083;SDS011;58741;52.672;13.548;2023-08-06T06:51:39;2.15;;;1.17;;
71083;SDS011;58741;52.672;13.548;2023-08-06T06:54:04;0.70;;;0.70;;
71083;SDS011;58741;52.672;13.548;2023-08-06T06:56:30;1.48;;;1.10;;
71083;SDS011;58741;52.672;13.548;2023-08-06T06:58:56;0.90;;;0.90;;
71083;SDS011;58741;52.672;13.548;2023-08-06T07:01:21;0.60;;;0.60;;
71083;SDS011;58741;52.672;13.548;2023-08-06T07:03:47;0.85;;;0.85;;
71083;SDS011;58741;52.672;13.548;2023-08-06T07:06:12;1.25;;;1.02;;
71083;SDS011;58741;52.672;13.548;2023-08-06T07:08:38;1.25;;;0.80;;
71083;SDS011;58741;52.672;13.548;2023-08-06T07:11:04;1.48;;;1.25;;
71083;SDS011;58741;52.672;13.548;2023-08-06T07:13:31;1.08;;;0.98;;
71083;SDS011;58741;52.672;13.548;2023-08-06T07:15:57;1.02;;;0.93;;
71083;SDS011;58741;52.672;13.548;2023-08-06T07:18:23;0.75;;;0.70;;
71083;SDS011;58741;52.672;13.548;2023-08-06T07:20:52;1.67;;;1.30;;
71083;SDS011;58741;52.672;13.548;2023-08-06T07:23:20;0.98;;;0.70;;
71083;SDS011;58741;52.672;13.548;2023-08-06T07:25:46;0.75;;;0.75;;
71083;SDS011;58741;52.672;13.548;2023-08-06T07:28:13;1.45;;;0.90;;
71083;SDS011;58741;52.672;13.548;2023-08-06T07:30:39;1.60;;;1.02;;
71083;SDS011;58741;52.672;13.548;2023-08-06T07:33:06;1.67;;;1.23;;
71083;SDS011;58741;52.672;13.548;2023-08-06T07:35:32;1.48;;;0.90;;
71083;SDS011;58741;52.672;13.548;2023-08-06T07:37:57;1.00;;;0.90;;
71083;SDS011;58741;52.672;13.548;2023-08-06T07:40:23;0.80;;;0.80;;
71083;SDS011;58741;52.672;13.548;2023-08-06T07:42:49;1.50;;;1.02;;
71083;SDS011;58741;52.672;13.548;2023-08-06T07:45:14;4.13;;;1.05;;
71083;SDS011;58741;52.672;13.548;2023-08-06T07:47:40;0.80;;;0.80;;
71083;SDS011;58741;52.672;13.548;2023-08-06T07:50:06;1.38;;;1.10;;
71083;SDS011;58741;52.672;13.548;2023-08-06T07:52:32;1.15;;;0.93;;
71083;SDS011;58741;52.672;13.548;2023-08-06T07:54:57;0.85;;;0.82;;
71083;SDS011;58741;52.672;13.548;2023-08-06T07:57:23;1.17;;;1.00;;
71083;SDS011;58741;52.672;13.548;2023-08-06T07:59:49;1.15;;;0.95;;
71083;SDS011;58741;52.672;13.548;2023-08-06T08:02:15;1.25;;;0.93;;
71083;SDS011;58741;52.672;13.548;2023-08-06T08:04:40;2.05;;;1.20;;
71083;SDS011;58741;52.672;13.548;2023-08-06T08:07:06;1.77;;;1.38;;
71083;SDS011;58741;52.672;13.548;2023-08-06T08:09:32;3.00;;;1.17;;
71083;SDS011;58741;52.672;13.548;2023-08-06T08:12:00;1.25;;;1.10;;
71083;SDS011;58741;52.672;13.548;2023-08-06T08:14:27;1.70;;;1.27;;
71083;SDS011;58741;52.672;13.548;2023-08-06T08:16:54;2.30;;;1.30;;
71083;SDS011;58741;52.672;13.548;2023-08-06T08:19:20;2.80;;;1.30;;
71083;SDS011;58741;52.672;13.548;2023-08-06T08:21:46;1.75;;;1.25;;
71083;SDS011;58741;52.672;13.548;2023-08-06T08:24:11;1.30;;;1.15;;
71083;SDS011;58741;52.672;13.548;2023-08-06T08:26:37;2.20;;;1.48;;
71083;SDS011;58741;52.672;13.548;2023-08-06T08:29:02;1.45;;;1.30;;
71083;SDS011;58741;52.672;13.548;2023-08-06T08:31:28;2.38;;;1.80;;
71083;SDS011;58741;52.672;13.548;2023-08-06T08:33:54;2.33;;;1.77;;
71083;SDS011;58741;52.672;13.548;2023-08-06T08:36:20;1.65;;;1.30;;
71083;SDS011;58741;52.672;13.548;2023-08-06T08:38:46;1.25;;;1.15;;
71083;SDS011;58741;52.672;13.548;2023-08-06T08:41:11;3.08;;;1.27;;
71083;SDS011;58741;52.672;13.548;2023-08-06T08:43:37;2.90;;;1.88;;
71083;SDS011;58741;52.672;13.548;2023-08-06T08:46:04;1.73;;;1.33;;
71083;SDS011;58741;52.672;13.548;2023-08-06T08:48:32;1.60;;;1.30;;
71083;SDS011;58741;52.672;13.548;2023-08-06T08:50:57;1.73;;;1.50;;
71083;SDS011;58741;52.672;13.548;2023-08-06T08:55:58;2.72;;;1.75;;
71083;SDS011;58741;52.672;13.548;2023-08-06T08:58:24;2.10;;;1.50;;
71083;SDS011;58741;52.672;13.548;2023-08-06T09:00:49;1.92;;;1.60;;
71083;SDS011;58741;52.672;13.548;2023-08-06T09:03:16;3.45;;;1.20;;
71083;SDS011;58741;52.672;13.548;2023-08-06T09:05:45;2.10;;;1.50;;
71083;SDS011;58741;52.672;13.548;2023-08-06T09:08:15;1.73;;;1.35;;
71083;SDS011;58741;52.672;13.548;2023-08-06T09:10:44;1.70;;;1.48;;
71083;SDS011;58741;52.672;13.548;2023-08-06T09:13:12;3.30;;;2.10;;
71083;SDS011;58741;52.672;13.548;2023-08-06T09:15:38;2.78;;;1.80;;
71083;SDS011;58741;52.672;13.548;2023-08-06T09:18:11;4.35;;;1.98;;
71083;SDS011;58741;52.672;13.548;2023-08-06T09:20:39;2.30;;;1.70;;
71083;SDS011;58741;52.672;13.548;2023-08-06T09:23:09;3.10;;;1.65;;
71083;SDS011;58741;52.672;13.548;2023-08-06T09:25:37;1.63;;;1.30;;
71083;SDS011;58741;52.672;13.548;2023-08-06T09:28:05;2.80;;;1.75;;
71083;SDS011;58741;52.672;13.548;2023-08-06T09:30:35;1.98;;;1.77;;
71083;SDS011;58741;52.672;13.548;2023-08-06T09:33:02;2.47;;;1.67;;
71083;SDS011;58741;52.672;13.548;2023-08-06T09:35:28;2.78;;;1.98;;
71083;SDS011;58741;52.672;13.548;2023-08-06T09:37:55;2.28;;;1.83;;
71083;SDS011;58741;52.672;13.548;2023-08-06T09:40:32;2.83;;;1.83;;
71083;SDS011;58741;52.672;13.548;2023-08-06T09:42:58;2.03;;;1.38;;
71083;SDS011;58741;52.672;13.548;2023-08-06T09:45:28;1.80;;;1.63;;
71083;SDS011;58741;52.672;13.548;2023-08-06T09:47:56;1.40;;;1.30;;
71083;SDS011;58741;52.672;13.548;2023-08-06T09:50:23;2.72;;;1.33;;
71083;SDS011;58741;52.672;13.548;2023-08-06T09:52:57;2.80;;;1.48;;
71083;SDS011;58741;52.672;13.548;2023-08-06T09:55:23;2.45;;;1.88;;
71083;SDS011;58741;52.672;13.548;2023-08-06T09:57:51;2.05;;;1.30;;
71083;SDS011;58741;52.672;13.548;2023-08-06T10:00:17;1.70;;;1.40;;
71083;SDS011;58741;52.672;13.548;2023-08-06T10:02:45;1.90;;;1.33;;
71083;SDS011;58741;52.672;13.548;2023-08-06T10:05:11;2.00;;;1.33;;
71083;SDS011;58741;52.672;13.548;2023-08-06T10:07:37;1.90;;;1.40;;
71083;SDS011;58741;52.672;13.548;2023-08-06T10:10:04;2.10;;;1.50;;
71083;SDS011;58741;52.672;13.548;2023-08-06T10:12:36;1.52;;;1.33;;
71083;SDS011;58741;52.672;13.548;2023-08-06T10:15:06;1.58;;;1.33;;
71083;SDS011;58741;52.672;13.548;2023-08-06T10:17:35;1.20;;;1.10;;
71083;SDS011;58741;52.672;13.548;2023-08-06T10:20:04;1.30;;;1.20;;
71083;SDS011;58741;52.672;13.548;2023-08-06T10:22:32;1.92;;;1.50;;
71083;SDS011;58741;52.672;13.548;2023-08-06T10:24:59;1.60;;;1.17;;
71083;SDS011;58741;52.672;13.548;2023-08-06T10:27:36;1.15;;;1.05;;
71083;SDS011;58741;52.672;13.548;2023-08-06T10:30:24;2.17;;;1.30;;
71083;SDS011;58741;52.672;13.548;2023-08-06T10:32:54;1.98;;;1.30;;
71083;SDS011;58741;52.672;13.548;2023-08-06T10:38:08;3.00;;;1.50;;
71083;SDS011;58741;52.672;13.548;2023-08-06T10:40:39;1.85;;;1.55;;
71083;SDS011;58741;52.672;13.548;2023-08-06T10:43:06;2.45;;;1.70;;
71083;SDS011;58741;52.672;13.548;2023-08-06T10:45:34;1.40;;;1.30;;
71083;SDS011;58741;52.672;13.548;2023-08-06T10:48:01;1.83;;;1.63;;
71083;SDS011;58741;52.672;13.548;2023-08-06T10:50:27;2.00;;;1.38;;
71083;SDS011;58741;52.672;13.548;2023-08-06T10:52:52;1.55;;;1.13;;
71083;SDS011;58741;52.672;13.548;2023-08-06T10:55:25;2.33;;;1.42;;
71083;SDS011;58741;52.672;13.548;2023-08-06T10:57:52;1.35;;;1.20;;
71083;SDS011;58741;52.672;13.548;2023-08-06T11:00:18;1.77;;;1.42;;
71083;SDS011;58741;52.672;13.548;2023-08-06T11:02:47;1.75;;;1.48;;
71083;SDS011;58741;52.672;13.548;2023-08-06T11:05:14;1.65;;;1.45;;
71083;SDS011;58741;52.672;13.548;2023-08-06T11:07:39;2.10;;;1.15;;
71083;SDS011;58741;52.672;13.548;2023-08-06T11:10:06;1.08;;;0.98;;
71083;SDS011;58741;52.672;13.548;2023-08-06T11:12:33;1.30;;;1.15;;
71083;SDS011;58741;52.672;13.548;2023-08-06T11:14:59;3.50;;;1.77;;
71083;SDS011;58741;52.672;13.548;2023-08-06T11:17:26;1.45;;;1.35;;
71083;SDS011;58741;52.672;13.548;2023-08-06T11:19:53;1.38;;;1.10;;
71083;SDS011;58741;52.672;13.548;2023-08-06T11:22:20;2.00;;;1.60;;
71083;SDS011;58741;52.672;13.548;2023-08-06T11:24:46;2.55;;;1.55;;
71083;SDS011;58741;52.672;13.548;2023-08-06T11:27:12;2.13;;;1.08;;
71083;SDS011;58741;52.672;13.548;2023-08-06T11:29:39;2.00;;;1.42;;
71083;SDS011;58741;52.672;13.548;2023-08-06T11:32:08;1.20;;;1.10;;
71083;SDS011;58741;52.672;13.548;2023-08-06T11:34:35;1.38;;;1.27;;
71083;SDS011;58741;52.672;13.548;2023-08-06T11:37:02;1.58;;;1.30;;
71083;SDS011;58741;52.672;13.548;2023-08-06T11:39:31;3.45;;;1.60;;
71083;SDS011;58741;52.672;13.548;2023-08-06T11:42:00;1.45;;;1.30;;
71083;SDS011;58741;52.672;13.548;2023-08-06T11:44:29;3.05;;;1.70;;
71083;SDS011;58741;52.672;13.548;2023-08-06T11:46:59;2.67;;;1.58;;
71083;SDS011;58741;52.672;13.548;2023-08-06T11:49:39;1.60;;;1.35;;
71083;SDS011;58741;52.672;13.548;2023-08-06T11:52:25;1.80;;;1.42;;
71083;SDS011;58741;52.672;13.548;2023-08-06T11:57:31;2.33;;;1.50;;
71083;SDS011;58741;52.672;13.548;2023-08-06T12:00:00;2.20;;;1.58;;
71083;SDS011;58741;52.672;13.548;2023-08-06T12:02:41;1.73;;;1.42;;
71083;SDS011;58741;52.672;13.548;2023-08-06T12:05:12;4.22;;;2.03;;
71083;SDS011;58741;52.672;13.548;2023-08-06T12:07:46;1.80;;;1.48;;
71083;SDS011;58741;52.672;13.548;2023-08-06T12:10:13;2.38;;;1.42;;
71083;SDS011;58741;52.672;13.548;2023-08-06T12:12:40;1.52;;;1.38;;
71083;SDS011;58741;52.672;13.548;2023-08-06T12:15:06;2.80;;;1.60;;
71083;SDS011;58741;52.672;13.548;2023-08-06T12:17:33;1.45;;;1.35;;
71083;SDS011;58741;52.672;13.548;2023-08-06T12:19:59;1.70;;;1.17;;
71083;SDS011;58741;52.672;13.548;2023-08-06T12:22:24;3.42;;;1.38;;
71083;SDS011;58741;52.672;13.548;2023-08-06T12:24:50;3.05;;;1.75;;
71083;SDS011;58741;52.672;13.548;2023-08-06T12:27:16;1.20;;;1.00;;
71083;SDS011;58741;52.672;13.548;2023-08-06T12:29:42;2.70;;;1.83;;
71083;SDS011;58741;52.672;13.548;2023-08-06T12:32:09;2.70;;;1.50;;
71083;SDS011;58741;52.672;13.548;2023-08-06T12:34:35;1.48;;;1.15;;
71083;SDS011;58741;52.672;13.548;2023-08-06T12:37:01;3.25;;;1.60;;
71083;SDS011;58741;52.672;13.548;2023-08-06T12:39:28;2.20;;;1.55;;
71083;SDS011;58741;52.672;13.548;2023-08-06T12:41:54;1.45;;;1.33;;
71083;SDS011;58741;52.672;13.548;2023-08-06T12:44:20;1.95;;;1.50;;
71083;SDS011;58741;52.672;13.548;2023-08-06T12:46:46;2.33;;;1.38;;
71083;SDS011;58741;52.672;13.548;2023-08-06T12:49:11;1.60;;;1.23;;
71083;SDS011;58741;52.672;13.548;2023-08-06T12:51:37;2.10;;;1.17;;
71083;SDS011;58741;52.672;13.548;2023-08-06T12:54:03;1.38;;;1.05;;
71083;SDS011;58741;52.672;13.548;2023-08-06T12:56:29;1.95;;;1.33;;
71083;SDS011;58741;52.672;13.548;2023-08-06T12:58:54;3.13;;;1.27;;
71083;SDS011;58741;52.672;13.548;2023-08-06T13:01:20;2.65;;;1.15;;
71083;SDS011;58741;52.672;13.548;2023-08-06T13:03:45;1.25;;;1.15;;
71083;SDS011;58741;52.672;13.548;2023-08-06T13:06:11;1.42;;;1.13;;
71083;SDS011;58741;52.672;13.548;2023-08-06T13:08:37;1.23;;;0.93;;
71083;SDS011;58741;52.672;13.548;2023-08-06T13:11:02;0.98;;;0.80;;
71083;SDS011;58741;52.672;13.548;2023-08-06T13:13:28;1.73;;;0.93;;
71083;SDS011;58741;52.672;13.548;2023-08-06T13:15:54;2.55;;;1.50;;
71083;SDS011;58741;52.672;13.548;2023-08-06T13:18:19;2.50;;;1.35;;
71083;SDS011;58741;52.672;13.548;2023-08-06T13:20:45;2.78;;;1.33;;
71083;SDS011;58741;52.672;13.548;2023-08-06T13:23:12;1.70;;;1.00;;
71083;SDS011;58741;52.672;13.548;2023-08-06T13:25:40;0.80;;;0.80;;
71083;SDS011;58741;52.672;13.548;2023-08-06T13:28:06;1.33;;;1.00;;
71083;SDS011;58741;52.672;13.548;2023-08-06T13:30:31;0.82;;;0.70;;
71083;SDS011;58741;52.672;13.548;2023-08-06T13:32:57;1.13;;;0.90;;
71083;SDS011;58741;52.672;13.548;2023-08-06T13:35:23;1.25;;;0.88;;
71083;SDS011;58741;52.672;13.548;2023-08-06T13:37:49;0.63;;;0.63;;
71083;SDS011;58741;52.672;13.548;2023-08-06T13:40:14;1.33;;;0.93;;
71083;SDS011;58741;52.672;13.548;2023-08-06T13:42:40;1.10;;;1.00;;
71083;SDS011;58741;52.672;13.548;2023-08-06T13:45:06;1.23;;;0.73;;
71083;SDS011;58741;52.672;13.548;2023-08-06T13:47:32;1.20;;;0.88;;
71083;SDS011;58741;52.672;13.548;2023-08-06T13:49:57;0.90;;;0.80;;
71083;SDS011;58741;52.672;13.548;2023-08-06T13:52:25;0.70;;;0.60;;
71083;SDS011;58741;52.672;13.548;2023-08-06T13:54:52;0.60;;;0.50;;
71083;SDS011;58741;52.672;13.548;2023-08-06T13:57:18;0.70;;;0.60;;
71083;SDS011;58741;52.672;13.548;2023-08-06T13:59:43;0.50;;;0.50;;
71083;SDS011;58741;52.672;13.548;2023-08-06T14:02:09;1.15;;;0.60;;
71083;SDS011;58741;52.672;13.548;2023-08-06T14:04:35;1.25;;;0.75;;
71083;SDS011;58741;52.672;13.548;2023-08-06T14:07:02;0.50;;;0.50;;
71083;SDS011;58741;52.672;13.548;2023-08-06T14:09:28;0.73;;;0.60;;
71083;SDS011;58741;52.672;13.548;2023-08-06T14:11:54;0.73;;;0.57;;
71083;SDS011;58741;52.672;13.548;2023-08-06T14:14:19;0.90;;;0.75;;
71083;SDS011;58741;52.672;13.548;2023-08-06T14:16:51;0.70;;;0.70;;
71083;SDS011;58741;52.672;13.548;2023-08-06T14:19:17;0.73;;;0.70;;
71083;SDS011;58741;52.672;13.548;2023-08-06T14:21:42;0.60;;;0.60;;
71083;SDS011;58741;52.672;13.548;2023-08-06T14:24:08;0.75;;;0.60;;
71083;SDS011;58741;52.672;13.548;2023-08-06T14:26:33;1.10;;;0.90;;
71083;SDS011;58741;52.672;13.548;2023-08-06T14:29:00;1.42;;;0.82;;
71083;SDS011;58741;52.672;13.548;2023-08-06T14:31:26;0.43;;;0.43;;
71083;SDS011;58741;52.672;13.548;2023-08-06T14:33:51;0.60;;;0.60;;
71083;SDS011;58741;52.672;13.548;2023-08-06T14:36:17;0.68;;;0.60;;
71083;SDS011;58741;52.672;13.548;2023-08-06T14:38:43;0.60;;;0.60;;
71083;SDS011;58741;52.672;13.548;2023-08-06T14:41:09;0.57;;;0.57;;
71083;SDS011;58741;52.672;13.548;2023-08-06T14:43:34;0.50;;;0.50;;
71083;SDS011;58741;52.672;13.548;2023-08-06T14:46:00;0.77;;;0.77;;